CheckWX is a tool to help pilots better visualize weather data.  It is not intended as a substitute for an official pre-flight weather briefing.

07:53:52 UTC

KPSM METAR
Portsmouth International at Pease Airport
Portsmouth, New Hampshire, USA
Current

18 mins ago

KPSM 210736Z 00000KT 8SM BKN007 OVC060 10/09 A3005 RMK AO2A SLP179
Observed
Oct-21 @ 07:36 UTC
Visibility
8 SM
Flight Rules
IFR
Cloud Levels
  • Broken at 700' AGL
  • Overcast at 6,000' AGL
Temperature
10°C / 50°F
Dewpoint
C / 48°F
Humidity
94%
Altimeter
30.05" Hg
Pressure
1017.62 hPa
Previous

58 mins ago

KPSM 210656Z 32005KT 8SM SCT006 BKN014 OVC065 10/09 A3005 RMK AO2A SLP179 T01030091
Observed
Oct-21 @ 06:56 UTC
Wind
  • 320° at 5 KTS
Visibility
8 SM
Flight Rules
MVFR
Cloud Levels
  • Scattered at 600' AGL
  • Broken at 1,400' AGL
  • Overcast at 6,500' AGL
Temperature
10°C / 50°F
Dewpoint
C / 48°F
Humidity
94%
Altimeter
30.05" Hg
Pressure
1017.62 hPa
Previous

1 hour ago

KPSM 210648Z 33003KT 8SM BKN011 OVC065 10/09 A3005 RMK AO2A SLP179
Observed
Oct-21 @ 06:48 UTC
Wind
  • 330° at 3 KTS
Visibility
8 SM
Flight Rules
MVFR
Cloud Levels
  • Broken at 1,100' AGL
  • Overcast at 6,500' AGL
Temperature
10°C / 50°F
Dewpoint
C / 48°F
Humidity
94%
Altimeter
30.05" Hg
Pressure
1017.62 hPa